Parrott, Virginia
Current Conditions -  °F | °C
As of 1:35 PM on Saturday 25 Oct 2014 (Local Time) from KPSK Reporting Station
Clear Clear  
Wind Chill: 67°   Ceiling: Unl
Heat Index: 67°   Visibility: 10mi
Dew Point: 41°   Wind: 8mph
Humidity: 39%   Direction: 270°W
Pressure: 30.01"   Gusts: NA
Location:  37.21°N, 80.62°W
Report Text: KPSK 251735Z AUTO 27007KT 10SM CLR 19/05 A3001 RMK AO2 T01930051
Loading
Personal Weather Stations






























Interactive Weather Map
Tropical Storm Tracking
New forecast layout! Learn more

10-Day Weather Forecast

Advertisements
Track Severe Weather on mobile